createdAt,value
2022-12-08T00:00:09.177Z,23.87
2022-12-08T00:03:15.460Z,21.05
2022-12-08T00:06:45.017Z,19.52
2022-12-08T00:09:47.471Z,20.73
2022-12-08T00:12:50.572Z,27.33
2022-12-08T00:15:53.326Z,27.05
2022-12-08T00:18:56.772Z,26.33
2022-12-08T00:21:59.812Z,22.73
2022-12-08T00:25:02.765Z,29.13
2022-12-08T00:28:05.795Z,24.45
2022-12-08T00:31:10.236Z,24.87
2022-12-08T00:34:14.763Z,28.00
2022-12-08T00:37:17.672Z,22.13
2022-12-08T00:40:20.153Z,20.47
2022-12-08T00:43:23.089Z,21.80
2022-12-08T00:46:25.620Z,24.23
2022-12-08T00:49:28.738Z,20.48
2022-12-08T00:52:31.309Z,20.48
2022-12-08T00:55:34.920Z,24.15
2022-12-08T00:58:37.371Z,17.92
2022-12-08T01:01:40.374Z,23.53
2022-12-08T01:04:43.221Z,19.23
2022-12-08T01:07:46.403Z,19.90
2022-12-08T01:10:48.861Z,16.30
2022-12-08T01:13:51.758Z,21.95
2022-12-08T01:16:54.270Z,19.55
2022-12-08T01:19:57.239Z,23.75
2022-12-08T01:22:59.688Z,24.38
2022-12-08T01:26:07.216Z,23.15
2022-12-08T01:29:10.409Z,23.92
2022-12-08T01:32:13.292Z,21.50
2022-12-08T01:35:16.055Z,21.73
2022-12-08T01:38:19.611Z,21.42
2022-12-08T01:41:31.280Z,22.63
2022-12-08T01:44:34.298Z,23.80
2022-12-08T01:47:42.666Z,21.77
2022-12-08T01:50:48.392Z,22.20
2022-12-08T01:53:51.309Z,22.88
2022-12-08T01:57:01.443Z,26.58
2022-12-08T02:00:09.130Z,16.48
2022-12-08T02:03:16.635Z,22.33
2022-12-08T02:06:20.250Z,24.67
2022-12-08T02:09:23.236Z,29.15
2022-12-08T02:12:25.796Z,28.10
2022-12-08T02:15:39.334Z,23.33
2022-12-08T02:19:14.718Z,22.67
2022-12-08T02:22:52.120Z,27.92
2022-12-08T02:26:09.583Z,37.17
2022-12-08T02:29:34.003Z,28.42
2022-12-08T02:32:39.773Z,25.88
2022-12-08T02:35:54.648Z,20.77
2022-12-08T02:39:37.261Z,26.40
2022-12-08T02:42:57.047Z,26.33
2022-12-08T02:46:05.289Z,23.37
2022-12-08T02:49:08.259Z,22.90
2022-12-08T02:52:14.321Z,25.05
2022-12-08T02:55:26.215Z,19.95
2022-12-08T02:58:48.207Z,26.52
2022-12-08T03:02:12.301Z,22.50
2022-12-08T03:05:14.802Z,27.75
2022-12-08T03:08:47.030Z,28.27
2022-12-08T03:12:07.797Z,25.40
2022-12-08T03:15:16.362Z,27.85
2022-12-08T03:18:24.008Z,23.10
2022-12-08T03:21:27.386Z,29.58
2022-12-08T03:24:40.769Z,23.52
2022-12-08T03:27:44.054Z,25.73
2022-12-08T03:30:51.034Z,25.05
2022-12-08T03:33:57.160Z,22.08
2022-12-08T03:37:01.530Z,25.05
2022-12-08T03:40:06.859Z,24.17
2022-12-08T03:43:10.009Z,21.70
2022-12-08T03:46:13.067Z,19.73
2022-12-08T03:49:15.620Z,25.83
2022-12-08T03:52:18.527Z,19.70
2022-12-08T03:55:21.621Z,18.55
2022-12-08T03:58:24.703Z,23.77
2022-12-08T04:01:28.256Z,21.83
2022-12-08T04:04:31.571Z,37.70
2022-12-08T04:07:34.176Z,32.70
2022-12-08T04:10:37.131Z,31.73
2022-12-08T04:13:41.098Z,27.35
2022-12-08T04:16:43.923Z,30.20
2022-12-08T04:19:46.420Z,25.77
2022-12-08T04:22:49.649Z,26.80
2022-12-08T04:25:53.240Z,24.98
2022-12-08T04:28:56.055Z,32.38
2022-12-08T04:31:58.910Z,35.83
2022-12-08T04:35:01.809Z,32.95
2022-12-08T04:38:04.666Z,26.23
2022-12-08T04:41:07.751Z,27.73
2022-12-08T04:44:10.232Z,28.65
2022-12-08T04:47:13.544Z,23.73
2022-12-08T04:50:16.451Z,33.13
2022-12-08T04:53:20.289Z,37.20
2022-12-08T04:56:22.992Z,36.33
2022-12-08T04:59:25.642Z,26.95
2022-12-08T05:02:28.592Z,33.35
2022-12-08T05:05:31.315Z,32.50
2022-12-08T05:08:34.043Z,32.92
2022-12-08T05:11:36.975Z,40.43
2022-12-08T05:14:39.516Z,26.73
2022-12-08T05:17:42.731Z,49.67
2022-12-08T05:20:45.252Z,31.97
2022-12-08T05:23:48.297Z,30.77
2022-12-08T05:26:50.777Z,33.63
2022-12-08T05:29:53.596Z,25.58
2022-12-08T05:32:56.074Z,23.58
2022-12-08T05:35:58.864Z,29.55
2022-12-08T05:39:01.426Z,31.90
2022-12-08T05:42:04.237Z,36.67
2022-12-08T05:45:07.338Z,48.72
2022-12-08T05:48:10.191Z,38.95
2022-12-08T05:51:23.921Z,41.93
2022-12-08T05:54:26.971Z,35.78
2022-12-08T05:57:29.532Z,39.97
2022-12-08T06:00:35.020Z,34.10
2022-12-08T06:03:38.216Z,32.63
2022-12-08T06:06:40.912Z,28.50
2022-12-08T06:09:43.694Z,30.70
2022-12-08T06:12:46.437Z,31.63
2022-12-08T06:15:49.408Z,32.10
2022-12-08T06:18:52.424Z,29.85
2022-12-08T06:21:54.953Z,29.43
2022-12-08T06:24:57.684Z,31.23
2022-12-08T06:28:00.400Z,31.55
2022-12-08T06:31:16.001Z,30.15
2022-12-08T06:34:18.801Z,28.50
2022-12-08T06:37:21.482Z,35.28
2022-12-08T06:40:24.228Z,30.77
2022-12-08T06:43:27.795Z,27.77
2022-12-08T06:46:30.385Z,31.30
2022-12-08T06:49:33.311Z,40.22
2022-12-08T06:52:43.007Z,31.93
2022-12-08T06:56:00.350Z,46.95
2022-12-08T06:59:04.257Z,34.53
2022-12-08T07:02:07.505Z,30.30
2022-12-08T07:05:10.743Z,32.72
2022-12-08T07:08:13.379Z,26.92
2022-12-08T07:11:21.112Z,30.38
2022-12-08T07:14:25.023Z,34.90
2022-12-08T07:17:27.900Z,26.67
2022-12-08T07:20:30.639Z,29.15
2022-12-08T07:23:33.351Z,37.00
2022-12-08T07:26:35.989Z,33.10
2022-12-08T07:29:38.827Z,35.40
2022-12-08T07:32:41.346Z,29.10
2022-12-08T07:35:49.103Z,35.08
2022-12-08T07:38:55.596Z,33.35
2022-12-08T07:41:58.584Z,41.60
2022-12-08T07:45:02.561Z,55.17
2022-12-08T07:48:06.536Z,45.75
2022-12-08T07:51:10.643Z,41.85
2022-12-08T07:54:14.015Z,50.87
2022-12-08T07:57:16.473Z,53.85
2022-12-08T08:00:19.923Z,49.15
2022-12-08T08:03:22.513Z,34.65
2022-12-08T08:06:25.796Z,32.88
2022-12-08T08:09:28.456Z,28.10
2022-12-08T08:12:32.640Z,27.42
2022-12-08T08:15:36.165Z,27.77
2022-12-08T08:18:40.220Z,31.75
2022-12-08T08:21:45.891Z,34.70
2022-12-08T08:24:49.179Z,33.03
2022-12-08T08:27:51.880Z,37.20
2022-12-08T08:30:55.313Z,41.28
2022-12-08T08:33:58.021Z,48.35
2022-12-08T08:37:00.878Z,36.08
2022-12-08T08:40:04.111Z,37.20
2022-12-08T08:43:07.551Z,39.92
2022-12-08T08:46:10.269Z,27.53
2022-12-08T08:49:13.264Z,37.85
2022-12-08T08:52:15.776Z,32.92
2022-12-08T08:55:18.847Z,35.20
2022-12-08T08:58:21.444Z,31.77
2022-12-08T09:01:27.790Z,33.30
2022-12-08T09:04:30.497Z,31.52
2022-12-08T09:07:33.803Z,29.05
2022-12-08T09:10:36.554Z,34.05
2022-12-08T09:13:39.417Z,33.72
2022-12-08T09:16:48.566Z,32.53
2022-12-08T09:19:51.295Z,31.75
2022-12-08T09:22:53.890Z,29.58
2022-12-08T09:25:56.790Z,31.37
2022-12-08T09:28:59.481Z,27.55
2022-12-08T09:32:02.220Z,34.83
2022-12-08T09:35:05.205Z,33.35
2022-12-08T09:38:08.032Z,26.95
2022-12-08T09:41:36.474Z,28.25
2022-12-08T09:44:59.871Z,34.92
2022-12-08T09:48:15.279Z,36.73
2022-12-08T09:51:18.067Z,31.35
2022-12-08T09:54:47.115Z,32.15
2022-12-08T09:57:57.803Z,35.70
2022-12-08T10:01:01.028Z,30.88
2022-12-08T10:04:04.789Z,31.48
2022-12-08T10:07:25.797Z,33.15
2022-12-08T10:10:57.369Z,29.40
2022-12-08T10:14:28.047Z,30.58
2022-12-08T10:17:35.841Z,33.55
2022-12-08T10:20:42.225Z,29.80
2022-12-08T10:23:49.591Z,33.90
2022-12-08T10:26:52.273Z,30.52
2022-12-08T10:29:55.115Z,33.47
2022-12-08T10:32:57.815Z,40.00
2022-12-08T10:36:04.724Z,36.25
2022-12-08T10:39:43.909Z,47.90
2022-12-08T10:42:51.399Z,41.22
2022-12-08T10:45:54.544Z,39.08
2022-12-08T10:49:12.399Z,45.40
2022-12-08T10:52:25.297Z,39.20
2022-12-08T10:55:30.223Z,36.97
2022-12-08T10:58:41.025Z,42.65
2022-12-08T11:01:48.862Z,36.30
2022-12-08T11:05:01.779Z,38.65
2022-12-08T11:08:06.115Z,39.22
2022-12-08T11:11:09.035Z,33.10
2022-12-08T11:14:16.881Z,32.10
2022-12-08T11:17:22.357Z,34.75
2022-12-08T11:20:25.379Z,30.58
2022-12-08T11:23:30.004Z,32.33
2022-12-08T11:26:35.467Z,33.75
2022-12-08T11:29:46.391Z,28.65
2022-12-08T11:32:55.157Z,34.00
2022-12-08T11:36:05.876Z,26.08
2022-12-08T11:39:12.550Z,26.55
2022-12-08T11:42:18.660Z,31.48
2022-12-08T11:45:26.959Z,39.10
2022-12-08T11:48:52.666Z,34.03
2022-12-08T11:52:03.172Z,31.15
2022-12-08T11:55:25.934Z,33.13
2022-12-08T11:58:39.075Z,30.10
2022-12-08T12:01:42.830Z,36.00
2022-12-08T12:04:57.653Z,34.27
2022-12-08T12:08:37.790Z,38.58
2022-12-08T12:12:07.212Z,32.47
2022-12-08T12:16:00.004Z,35.10
2022-12-08T12:19:18.044Z,35.38
2022-12-08T12:22:23.383Z,40.25
2022-12-08T12:25:27.063Z,38.85
2022-12-08T12:28:49.909Z,32.40
2022-12-08T12:31:58.368Z,36.63
2022-12-08T12:35:01.463Z,32.40
2022-12-08T12:38:30.893Z,32.10
2022-12-08T12:42:00.064Z,33.38
2022-12-08T12:45:16.435Z,31.67
2022-12-08T12:48:25.309Z,31.42
2022-12-08T12:51:43.347Z,33.30
2022-12-08T12:54:51.929Z,35.17
2022-12-08T12:57:57.401Z,36.78
2022-12-08T13:01:12.653Z,30.93
2022-12-08T13:04:17.078Z,32.15
2022-12-08T13:07:22.680Z,33.58
2022-12-08T13:10:39.621Z,42.20
2022-12-08T13:14:01.338Z,36.85
2022-12-08T13:17:11.577Z,36.00
2022-12-08T13:20:25.852Z,34.28
2022-12-08T13:23:50.573Z,41.50
2022-12-08T13:27:04.965Z,36.38
2022-12-08T13:30:42.551Z,32.38
2022-12-08T13:33:46.966Z,38.30
2022-12-08T13:36:57.715Z,37.25
2022-12-08T13:40:14.429Z,34.20
2022-12-08T13:44:02.494Z,33.40
2022-12-08T13:47:33.263Z,41.92
2022-12-08T13:57:43.093Z,36.40
2022-12-08T14:01:15.165Z,36.63
2022-12-08T14:07:44.135Z,49.37
2022-12-08T14:10:53.331Z,61.00
2022-12-08T14:13:56.024Z,41.90
2022-12-08T14:17:03.645Z,39.40
2022-12-08T14:20:12.383Z,39.35
2022-12-08T14:23:17.438Z,38.03
2022-12-08T14:26:20.123Z,38.08
2022-12-08T14:29:49.934Z,34.63
2022-12-08T14:32:58.898Z,34.50
2022-12-08T14:36:01.820Z,38.08
2022-12-08T14:39:04.452Z,36.37
2022-12-08T14:42:07.828Z,37.35
2022-12-08T14:45:13.668Z,42.50
2022-12-08T14:48:33.726Z,51.47
2022-12-08T14:51:36.942Z,49.13
2022-12-08T14:54:41.093Z,46.42
2022-12-08T14:57:48.684Z,38.42
2022-12-08T15:00:57.004Z,34.20
2022-12-08T15:04:14.061Z,34.58
2022-12-08T15:07:19.947Z,36.97
2022-12-08T15:10:30.887Z,41.47
2022-12-08T15:13:33.777Z,36.40
2022-12-08T15:16:36.527Z,32.13
2022-12-08T15:19:40.316Z,35.83
2022-12-08T15:22:42.716Z,34.63
2022-12-08T15:25:45.944Z,40.63
2022-12-08T15:28:48.479Z,36.90
2022-12-08T15:31:53.505Z,38.50
2022-12-08T15:34:56.145Z,40.65
2022-12-08T15:37:58.868Z,55.03
2022-12-08T15:41:01.690Z,58.77
2022-12-08T15:44:04.306Z,52.28
2022-12-08T15:47:16.779Z,53.75
2022-12-08T15:50:21.799Z,36.27
2022-12-08T15:53:24.496Z,41.67
2022-12-08T15:56:28.641Z,41.25
2022-12-08T15:59:31.915Z,45.97
2022-12-08T16:03:05.018Z,59.40
2022-12-08T16:06:50.866Z,48.22
2022-12-08T16:09:36.951Z,48.15
2022-12-08T16:16:26.836Z,42.03
2022-12-08T16:19:29.581Z,44.15
2022-12-08T16:26:20.385Z,51.30
2022-12-08T16:29:20.806Z,50.75
2022-12-08T16:32:23.679Z,53.38
2022-12-08T16:35:26.522Z,54.55
2022-12-08T16:38:29.135Z,54.90
2022-12-08T16:41:50.116Z,54.25
2022-12-08T16:44:53.007Z,59.40
2022-12-08T16:48:00.782Z,50.92
2022-12-08T16:51:04.577Z,57.45
2022-12-08T16:54:07.487Z,54.97
2022-12-08T16:57:12.064Z,60.13
2022-12-08T17:00:19.371Z,66.15
2022-12-08T17:03:22.020Z,68.85
2022-12-08T17:06:24.740Z,64.97
2022-12-08T17:09:28.601Z,61.75
2022-12-08T17:12:31.960Z,74.28
2022-12-08T17:15:34.903Z,63.37
2022-12-08T17:18:38.445Z,64.32
2022-12-08T17:21:41.799Z,58.90
2022-12-08T17:24:44.541Z,58.70
2022-12-08T17:27:47.497Z,68.95
2022-12-08T17:30:50.290Z,70.32
2022-12-08T17:33:52.931Z,79.55
2022-12-08T17:36:56.514Z,70.20
2022-12-08T17:39:59.653Z,61.70
2022-12-08T17:43:02.343Z,58.97
2022-12-08T17:46:05.653Z,63.13
2022-12-08T17:49:20.441Z,60.03
2022-12-08T17:52:23.074Z,60.88
2022-12-08T17:55:26.149Z,59.57
2022-12-08T17:58:28.736Z,57.40
2022-12-08T18:01:34.660Z,58.50
2022-12-08T18:04:37.273Z,66.10
2022-12-08T18:07:40.192Z,63.78
2022-12-08T18:10:43.167Z,58.38
2022-12-08T18:13:48.299Z,58.28
2022-12-08T18:16:51.174Z,57.97
2022-12-08T18:19:53.978Z,55.60
2022-12-08T18:22:56.637Z,66.22
2022-12-08T18:25:59.685Z,72.30
2022-12-08T18:29:02.166Z,74.63
2022-12-08T18:32:05.081Z,82.28
2022-12-08T18:35:08.682Z,82.05
2022-12-08T18:38:11.395Z,81.15
2022-12-08T18:41:18.819Z,66.88
2022-12-08T18:44:21.759Z,71.70
2022-12-08T18:47:24.761Z,61.83
2022-12-08T18:50:27.775Z,83.20
2022-12-08T18:53:31.636Z,83.63
2022-12-08T18:56:37.060Z,85.03
2022-12-08T18:59:39.934Z,91.03
2022-12-08T19:02:43.275Z,81.63
2022-12-08T19:05:45.944Z,98.30
2022-12-08T19:08:49.147Z,66.28
2022-12-08T19:11:52.353Z,61.25
2022-12-08T19:14:55.227Z,78.55
2022-12-08T19:17:58.396Z,123.03
2022-12-08T19:21:01.320Z,116.18
2022-12-08T19:24:04.685Z,133.60
2022-12-08T19:27:07.775Z,113.43
2022-12-08T19:30:11.008Z,94.18
2022-12-08T19:33:14.091Z,102.78
2022-12-08T19:36:19.140Z,82.18
2022-12-08T19:39:41.882Z,79.57
2022-12-08T19:43:04.273Z,70.80
2022-12-08T19:46:08.792Z,77.07
2022-12-08T19:49:11.805Z,70.27
2022-12-08T19:52:15.152Z,71.25
2022-12-08T19:55:17.942Z,74.72
2022-12-08T19:58:20.932Z,74.23
2022-12-08T20:01:23.809Z,75.80
2022-12-08T20:04:27.714Z,81.07
2022-12-08T20:07:30.567Z,80.47
2022-12-08T20:10:36.968Z,74.38
2022-12-08T20:13:44.693Z,73.03
2022-12-08T20:16:47.732Z,77.78
2022-12-08T20:19:51.010Z,64.63
2022-12-08T20:22:54.360Z,72.45
2022-12-08T20:25:57.895Z,72.20
2022-12-08T20:29:00.970Z,78.50
2022-12-08T20:32:04.067Z,78.47
2022-12-08T20:35:07.592Z,63.35
2022-12-08T20:38:11.230Z,85.80
2022-12-08T20:41:16.183Z,69.78
2022-12-08T20:44:19.188Z,67.28
2022-12-08T20:47:22.183Z,68.28
2022-12-08T20:50:25.545Z,60.77
2022-12-08T20:53:28.751Z,69.22
2022-12-08T20:56:32.762Z,80.03
2022-12-08T20:59:36.306Z,77.43
2022-12-08T21:02:45.087Z,71.22
2022-12-08T21:05:52.120Z,81.70
2022-12-08T21:08:55.008Z,79.15
2022-12-08T21:11:58.051Z,66.35
2022-12-08T21:15:01.007Z,64.10
2022-12-08T21:18:05.284Z,55.75
2022-12-08T21:21:12.273Z,107.77
2022-12-08T21:24:15.888Z,90.60
2022-12-08T21:27:18.751Z,77.50
2022-12-08T21:30:23.004Z,72.17
2022-12-08T21:33:25.555Z,58.75
2022-12-08T21:36:28.719Z,56.53
2022-12-08T21:39:32.739Z,50.97
2022-12-08T21:42:45.506Z,50.95
2022-12-08T21:45:48.190Z,52.38
2022-12-08T21:48:51.186Z,45.75
2022-12-08T21:51:54.069Z,46.90
2022-12-08T21:54:57.176Z,40.35
2022-12-08T21:58:01.008Z,47.67
2022-12-08T22:01:08.471Z,45.10
2022-12-08T22:04:12.557Z,40.22
2022-12-08T22:07:15.984Z,53.15
2022-12-08T22:10:21.064Z,47.97
2022-12-08T22:13:23.948Z,48.83
2022-12-08T22:16:26.589Z,48.78
2022-12-08T22:19:31.270Z,52.30
2022-12-08T22:22:34.939Z,53.53
2022-12-08T22:25:37.997Z,58.55
2022-12-08T22:28:42.574Z,58.90
2022-12-08T22:31:45.415Z,58.37
2022-12-08T22:34:47.838Z,56.05
2022-12-08T22:37:50.547Z,58.63
2022-12-08T22:40:53.371Z,59.13
2022-12-08T22:43:56.212Z,54.08
2022-12-08T22:46:58.859Z,53.05
2022-12-08T22:50:02.620Z,50.70
2022-12-08T22:53:05.410Z,56.57
2022-12-08T22:56:10.477Z,56.05
2022-12-08T22:59:13.169Z,54.20
2022-12-08T23:02:16.740Z,50.00
2022-12-08T23:05:19.582Z,55.90
2022-12-08T23:08:22.657Z,58.55
2022-12-08T23:11:28.981Z,52.15
2022-12-08T23:14:31.924Z,60.92
2022-12-08T23:17:34.854Z,61.63
2022-12-08T23:20:37.809Z,59.15
2022-12-08T23:23:41.077Z,54.83
2022-12-08T23:26:43.853Z,48.25
2022-12-08T23:29:46.708Z,47.17
2022-12-08T23:32:49.304Z,50.07
2022-12-08T23:35:58.281Z,46.40
2022-12-08T23:39:00.987Z,39.83
2022-12-08T23:42:03.801Z,46.95
2022-12-08T23:45:08.931Z,47.42
2022-12-08T23:48:11.729Z,45.92
2022-12-08T23:51:14.559Z,49.50
2022-12-08T23:54:17.489Z,43.87
2022-12-08T23:57:20.760Z,42.97
